sensor_id;sensor_type;location;lat;lon;timestamp;temperature;humidity
573;DHT22;271;51.114;13.780;2022-11-02T00:00:50;7.90;1.00
573;DHT22;271;51.114;13.780;2022-11-02T00:03:18;7.90;1.00
573;DHT22;271;51.114;13.780;2022-11-02T00:05:45;7.90;1.00
573;DHT22;271;51.114;13.780;2022-11-02T00:08:12;7.80;1.00
573;DHT22;271;51.114;13.780;2022-11-02T00:10:39;7.80;1.00
573;DHT22;271;51.114;13.780;2022-11-02T00:13:06;7.80;1.00
573;DHT22;271;51.114;13.780;2022-11-02T00:15:35;7.80;1.00
573;DHT22;271;51.114;13.780;2022-11-02T00:18:04;7.70;1.00
573;DHT22;271;51.114;13.780;2022-11-02T00:20:34;7.70;1.00
573;DHT22;271;51.114;13.780;2022-11-02T00:23:02;7.70;1.00
573;DHT22;271;51.114;13.780;2022-11-02T00:25:32;7.80;1.00
573;DHT22;271;51.114;13.780;2022-11-02T00:28:00;7.80;1.00
573;DHT22;271;51.114;13.780;2022-11-02T00:30:27;7.70;1.00
573;DHT22;271;51.114;13.780;2022-11-02T00:32:56;7.60;1.00
573;DHT22;271;51.114;13.780;2022-11-02T00:35:23;7.70;1.00
573;DHT22;271;51.114;13.780;2022-11-02T00:37:51;7.60;1.00
573;DHT22;271;51.114;13.780;2022-11-02T00:40:18;7.60;1.00
573;DHT22;271;51.114;13.780;2022-11-02T00:42:45;7.70;1.00
573;DHT22;271;51.114;13.780;2022-11-02T00:45:13;7.60;1.00
573;DHT22;271;51.114;13.780;2022-11-02T00:47:40;7.60;1.00
573;DHT22;271;51.114;13.780;2022-11-02T00:50:09;7.60;1.00
573;DHT22;271;51.114;13.780;2022-11-02T00:52:37;7.70;1.00
573;DHT22;271;51.114;13.780;2022-11-02T00:55:05;7.60;1.00
573;DHT22;271;51.114;13.780;2022-11-02T00:57:33;7.60;1.00
573;DHT22;271;51.114;13.780;2022-11-02T01:00:01;7.50;1.00
573;DHT22;271;51.114;13.780;2022-11-02T01:02:28;7.50;1.00
573;DHT22;271;51.114;13.780;2022-11-02T01:04:55;7.50;1.00
573;DHT22;271;51.114;13.780;2022-11-02T01:07:24;7.50;1.00
573;DHT22;271;51.114;13.780;2022-11-02T01:09:53;7.50;1.00
573;DHT22;271;51.114;13.780;2022-11-02T01:12:21;7.50;1.00
573;DHT22;271;51.114;13.780;2022-11-02T01:14:48;7.50;1.00
573;DHT22;271;51.114;13.780;2022-11-02T01:17:17;7.50;1.00
573;DHT22;271;51.114;13.780;2022-11-02T01:19:44;7.40;1.00
573;DHT22;271;51.114;13.780;2022-11-02T01:22:11;7.40;1.00
573;DHT22;271;51.114;13.780;2022-11-02T01:24:40;7.30;1.00
573;DHT22;271;51.114;13.780;2022-11-02T01:27:07;7.30;1.00
573;DHT22;271;51.114;13.780;2022-11-02T01:29:34;7.30;1.00
573;DHT22;271;51.114;13.780;2022-11-02T01:32:02;7.30;1.00
573;DHT22;271;51.114;13.780;2022-11-02T01:34:29;7.40;1.00
573;DHT22;271;51.114;13.780;2022-11-02T01:36:56;7.40;1.00
573;DHT22;271;51.114;13.780;2022-11-02T01:39:23;7.40;1.00
573;DHT22;271;51.114;13.780;2022-11-02T01:41:52;7.40;1.00
573;DHT22;271;51.114;13.780;2022-11-02T01:44:26;7.20;1.00
573;DHT22;271;51.114;13.780;2022-11-02T01:46:58;7.20;1.00
573;DHT22;271;51.114;13.780;2022-11-02T01:49:29;7.20;1.00
573;DHT22;271;51.114;13.780;2022-11-02T01:52:02;7.20;1.00
573;DHT22;271;51.114;13.780;2022-11-02T01:54:34;7.20;1.00
573;DHT22;271;51.114;13.780;2022-11-02T01:57:08;7.20;1.00
573;DHT22;271;51.114;13.780;2022-11-02T01:59:39;7.10;1.00
573;DHT22;271;51.114;13.780;2022-11-02T02:02:14;7.10;1.00
573;DHT22;271;51.114;13.780;2022-11-02T02:04:44;7.10;1.00
573;DHT22;271;51.114;13.780;2022-11-02T02:07:14;7.10;1.00
573;DHT22;271;51.114;13.780;2022-11-02T02:09:41;7.00;1.00
573;DHT22;271;51.114;13.780;2022-11-02T02:12:11;7.00;1.00
573;DHT22;271;51.114;13.780;2022-11-02T02:14:39;7.00;1.00
573;DHT22;271;51.114;13.780;2022-11-02T02:17:16;7.00;1.00
573;DHT22;271;51.114;13.780;2022-11-02T02:19:52;6.90;1.00
573;DHT22;271;51.114;13.780;2022-11-02T02:22:38;6.90;1.00
573;DHT22;271;51.114;13.780;2022-11-02T02:25:24;6.90;1.00
573;DHT22;271;51.114;13.780;2022-11-02T02:28:05;6.90;1.00
573;DHT22;271;51.114;13.780;2022-11-02T02:30:41;6.90;1.00
573;DHT22;271;51.114;13.780;2022-11-02T02:33:13;6.90;1.00
573;DHT22;271;51.114;13.780;2022-11-02T02:35:44;6.90;1.00
573;DHT22;271;51.114;13.780;2022-11-02T02:38:16;6.80;1.00
573;DHT22;271;51.114;13.780;2022-11-02T02:40:48;6.80;1.00
573;DHT22;271;51.114;13.780;2022-11-02T02:43:23;6.70;1.00
573;DHT22;271;51.114;13.780;2022-11-02T02:45:56;6.70;1.00
573;DHT22;271;51.114;13.780;2022-11-02T02:48:25;6.70;1.00
573;DHT22;271;51.114;13.780;2022-11-02T02:50:54;6.70;1.00
573;DHT22;271;51.114;13.780;2022-11-02T02:53:27;6.60;1.00
573;DHT22;271;51.114;13.780;2022-11-02T02:55:57;6.60;1.00
573;DHT22;271;51.114;13.780;2022-11-02T02:58:30;6.60;1.00
573;DHT22;271;51.114;13.780;2022-11-02T03:00:59;6.60;1.00
573;DHT22;271;51.114;13.780;2022-11-02T03:03:27;6.60;1.00
573;DHT22;271;51.114;13.780;2022-11-02T03:06:03;6.60;1.00
573;DHT22;271;51.114;13.780;2022-11-02T03:08:32;6.50;1.00
573;DHT22;271;51.114;13.780;2022-11-02T03:11:09;6.50;1.00
573;DHT22;271;51.114;13.780;2022-11-02T03:13:49;6.40;1.00
573;DHT22;271;51.114;13.780;2022-11-02T03:16:35;6.50;1.00
573;DHT22;271;51.114;13.780;2022-11-02T03:19:12;6.40;1.00
573;DHT22;271;51.114;13.780;2022-11-02T03:21:45;6.40;1.00
573;DHT22;271;51.114;13.780;2022-11-02T03:24:17;6.40;1.00
573;DHT22;271;51.114;13.780;2022-11-02T03:26:49;6.40;1.00
573;DHT22;271;51.114;13.780;2022-11-02T03:29:24;6.40;1.00
573;DHT22;271;51.114;13.780;2022-11-02T03:31:56;6.30;1.00
573;DHT22;271;51.114;13.780;2022-11-02T03:34:27;6.40;1.00
573;DHT22;271;51.114;13.780;2022-11-02T03:37:01;6.40;1.00
573;DHT22;271;51.114;13.780;2022-11-02T03:39:33;6.40;1.00
573;DHT22;271;51.114;13.780;2022-11-02T03:42:03;6.40;1.00
573;DHT22;271;51.114;13.780;2022-11-02T03:44:36;6.50;1.00
573;DHT22;271;51.114;13.780;2022-11-02T03:47:06;6.40;1.00
573;DHT22;271;51.114;13.780;2022-11-02T03:49:34;6.40;1.00
573;DHT22;271;51.114;13.780;2022-11-02T03:52:06;6.40;1.00
573;DHT22;271;51.114;13.780;2022-11-02T03:54:40;6.40;1.00
573;DHT22;271;51.114;13.780;2022-11-02T03:57:13;6.50;1.00
573;DHT22;271;51.114;13.780;2022-11-02T03:59:45;6.50;1.00
573;DHT22;271;51.114;13.780;2022-11-02T04:02:14;6.50;1.00
573;DHT22;271;51.114;13.780;2022-11-02T04:04:49;6.50;1.00
573;DHT22;271;51.114;13.780;2022-11-02T04:07:19;6.50;1.00
573;DHT22;271;51.114;13.780;2022-11-02T04:09:49;6.60;1.00
573;DHT22;271;51.114;13.780;2022-11-02T04:12:16;6.60;1.00
573;DHT22;271;51.114;13.780;2022-11-02T04:15:04;6.60;1.00
573;DHT22;271;51.114;13.780;2022-11-02T04:17:31;6.60;1.00
573;DHT22;271;51.114;13.780;2022-11-02T04:20:16;6.60;1.00
573;DHT22;271;51.114;13.780;2022-11-02T04:22:43;6.70;1.00
573;DHT22;271;51.114;13.780;2022-11-02T04:25:28;6.70;1.00
573;DHT22;271;51.114;13.780;2022-11-02T04:27:55;6.70;1.00
573;DHT22;271;51.114;13.780;2022-11-02T04:30:33;6.70;1.00
573;DHT22;271;51.114;13.780;2022-11-02T04:33:00;6.80;1.00
573;DHT22;271;51.114;13.780;2022-11-02T04:35:45;6.80;1.00
573;DHT22;271;51.114;13.780;2022-11-02T04:38:12;7.00;2.70
573;DHT22;271;51.114;13.780;2022-11-02T04:40:58;7.00;1.00
573;DHT22;271;51.114;13.780;2022-11-02T04:43:39;7.00;1.50
573;DHT22;271;51.114;13.780;2022-11-02T04:46:08;7.10;1.00
573;DHT22;271;51.114;13.780;2022-11-02T04:48:35;7.10;1.00
573;DHT22;271;51.114;13.780;2022-11-02T04:51:02;7.10;1.00
573;DHT22;271;51.114;13.780;2022-11-02T04:53:30;7.20;3.10
573;DHT22;271;51.114;13.780;2022-11-02T04:55:57;7.40;3.30
573;DHT22;271;51.114;13.780;2022-11-02T04:58:24;7.40;1.00
573;DHT22;271;51.114;13.780;2022-11-02T05:00:51;7.40;1.00
573;DHT22;271;51.114;13.780;2022-11-02T05:03:20;7.50;1.00
573;DHT22;271;51.114;13.780;2022-11-02T05:05:52;7.50;1.00
573;DHT22;271;51.114;13.780;2022-11-02T05:08:20;7.50;1.00
573;DHT22;271;51.114;13.780;2022-11-02T05:10:47;7.40;1.00
573;DHT22;271;51.114;13.780;2022-11-02T05:13:14;7.40;1.00
573;DHT22;271;51.114;13.780;2022-11-02T05:15:42;7.40;1.00
573;DHT22;271;51.114;13.780;2022-11-02T05:18:09;7.30;1.00
573;DHT22;271;51.114;13.780;2022-11-02T05:20:38;7.30;1.00
573;DHT22;271;51.114;13.780;2022-11-02T05:23:06;7.30;1.00
573;DHT22;271;51.114;13.780;2022-11-02T05:25:33;7.30;1.00
573;DHT22;271;51.114;13.780;2022-11-02T05:28:01;7.30;1.00
573;DHT22;271;51.114;13.780;2022-11-02T05:30:28;7.20;1.00
573;DHT22;271;51.114;13.780;2022-11-02T05:32:55;7.30;1.00
573;DHT22;271;51.114;13.780;2022-11-02T05:35:23;7.30;1.00
573;DHT22;271;51.114;13.780;2022-11-02T05:37:54;7.30;1.00
573;DHT22;271;51.114;13.780;2022-11-02T05:40:21;7.20;1.00
573;DHT22;271;51.114;13.780;2022-11-02T05:42:48;7.20;1.00
573;DHT22;271;51.114;13.780;2022-11-02T05:45:15;7.20;1.00
573;DHT22;271;51.114;13.780;2022-11-02T05:47:43;7.20;1.00
573;DHT22;271;51.114;13.780;2022-11-02T05:50:10;7.20;1.00
573;DHT22;271;51.114;13.780;2022-11-02T05:52:37;7.20;1.00
573;DHT22;271;51.114;13.780;2022-11-02T05:55:06;7.20;1.00
573;DHT22;271;51.114;13.780;2022-11-02T05:57:34;7.20;1.00
573;DHT22;271;51.114;13.780;2022-11-02T06:00:01;7.30;1.00
573;DHT22;271;51.114;13.780;2022-11-02T06:02:29;7.20;1.00
573;DHT22;271;51.114;13.780;2022-11-02T06:04:56;7.10;1.00
573;DHT22;271;51.114;13.780;2022-11-02T06:07:23;7.10;1.00
573;DHT22;271;51.114;13.780;2022-11-02T06:09:50;7.20;1.00
573;DHT22;271;51.114;13.780;2022-11-02T06:12:19;7.10;1.00
573;DHT22;271;51.114;13.780;2022-11-02T06:14:46;7.10;1.00
573;DHT22;271;51.114;13.780;2022-11-02T06:17:13;7.10;1.00
573;DHT22;271;51.114;13.780;2022-11-02T06:19:40;7.10;1.00
573;DHT22;271;51.114;13.780;2022-11-02T06:22:07;7.20;1.00
573;DHT22;271;51.114;13.780;2022-11-02T06:24:35;7.20;1.00
573;DHT22;271;51.114;13.780;2022-11-02T06:27:02;7.20;1.00
573;DHT22;271;51.114;13.780;2022-11-02T06:29:30;7.30;1.00
573;DHT22;271;51.114;13.780;2022-11-02T06:31:58;7.40;1.00
573;DHT22;271;51.114;13.780;2022-11-02T06:34:25;7.60;1.00
573;DHT22;271;51.114;13.780;2022-11-02T06:36:52;7.70;1.00
573;DHT22;271;51.114;13.780;2022-11-02T06:39:19;8.00;1.00
573;DHT22;271;51.114;13.780;2022-11-02T06:41:47;8.20;1.00
573;DHT22;271;51.114;13.780;2022-11-02T06:44:14;8.60;1.00
573;DHT22;271;51.114;13.780;2022-11-02T06:46:43;8.80;1.00
573;DHT22;271;51.114;13.780;2022-11-02T06:49:10;9.00;1.00
573;DHT22;271;51.114;13.780;2022-11-02T06:51:37;9.10;1.00
573;DHT22;271;51.114;13.780;2022-11-02T06:54:04;9.40;1.00
573;DHT22;271;51.114;13.780;2022-11-02T06:56:32;9.60;1.00
573;DHT22;271;51.114;13.780;2022-11-02T06:58:59;9.70;1.00
573;DHT22;271;51.114;13.780;2022-11-02T07:01:26;9.80;1.00
573;DHT22;271;51.114;13.780;2022-11-02T07:03:55;9.90;1.00
573;DHT22;271;51.114;13.780;2022-11-02T07:06:22;10.00;1.00
573;DHT22;271;51.114;13.780;2022-11-02T07:08:50;10.10;1.00
573;DHT22;271;51.114;13.780;2022-11-02T07:11:17;10.10;1.00
573;DHT22;271;51.114;13.780;2022-11-02T07:13:44;10.20;1.00
573;DHT22;271;51.114;13.780;2022-11-02T07:16:11;10.20;1.00
573;DHT22;271;51.114;13.780;2022-11-02T07:18:39;10.30;1.00
573;DHT22;271;51.114;13.780;2022-11-02T07:21:07;10.30;1.00
573;DHT22;271;51.114;13.780;2022-11-02T07:23:36;10.20;1.00
573;DHT22;271;51.114;13.780;2022-11-02T07:26:04;10.30;1.00
573;DHT22;271;51.114;13.780;2022-11-02T07:28:31;10.30;1.00
573;DHT22;271;51.114;13.780;2022-11-02T07:30:58;10.30;1.00
573;DHT22;271;51.114;13.780;2022-11-02T07:33:25;10.30;1.00
573;DHT22;271;51.114;13.780;2022-11-02T07:35:52;10.40;1.00
573;DHT22;271;51.114;13.780;2022-11-02T07:38:21;10.50;1.00
573;DHT22;271;51.114;13.780;2022-11-02T07:40:48;10.50;1.00
573;DHT22;271;51.114;13.780;2022-11-02T07:43:16;10.60;1.00
573;DHT22;271;51.114;13.780;2022-11-02T07:45:43;10.70;1.00
573;DHT22;271;51.114;13.780;2022-11-02T07:48:11;10.80;1.00
573;DHT22;271;51.114;13.780;2022-11-02T07:50:38;10.90;1.00
573;DHT22;271;51.114;13.780;2022-11-02T07:53:05;11.10;1.00
573;DHT22;271;51.114;13.780;2022-11-02T07:55:33;11.20;1.00
573;DHT22;271;51.114;13.780;2022-11-02T07:58:02;11.30;1.00
573;DHT22;271;51.114;13.780;2022-11-02T08:00:31;11.40;1.00
573;DHT22;271;51.114;13.780;2022-11-02T08:03:00;11.50;1.00
573;DHT22;271;51.114;13.780;2022-11-02T08:05:28;11.60;1.00
573;DHT22;271;51.114;13.780;2022-11-02T08:07:56;11.70;1.00
573;DHT22;271;51.114;13.780;2022-11-02T08:10:24;11.90;1.00
573;DHT22;271;51.114;13.780;2022-11-02T08:12:53;12.10;1.00
573;DHT22;271;51.114;13.780;2022-11-02T08:15:20;12.40;1.00
573;DHT22;271;51.114;13.780;2022-11-02T08:17:58;12.80;1.00
573;DHT22;271;51.114;13.780;2022-11-02T08:20:25;13.30;1.00
573;DHT22;271;51.114;13.780;2022-11-02T08:22:53;13.80;1.00
573;DHT22;271;51.114;13.780;2022-11-02T08:25:20;14.30;1.00
573;DHT22;271;51.114;13.780;2022-11-02T08:27:47;14.70;1.00
573;DHT22;271;51.114;13.780;2022-11-02T08:30:16;15.10;1.00
573;DHT22;271;51.114;13.780;2022-11-02T08:32:43;15.30;1.00
573;DHT22;271;51.114;13.780;2022-11-02T08:35:10;15.40;1.00
573;DHT22;271;51.114;13.780;2022-11-02T08:37:37;15.70;1.00
573;DHT22;271;51.114;13.780;2022-11-02T08:40:06;15.80;1.00
573;DHT22;271;51.114;13.780;2022-11-02T08:42:33;15.80;1.00
573;DHT22;271;51.114;13.780;2022-11-02T08:45:05;16.10;1.00
573;DHT22;271;51.114;13.780;2022-11-02T08:47:39;16.40;1.00
573;DHT22;271;51.114;13.780;2022-11-02T08:50:07;16.80;1.00
573;DHT22;271;51.114;13.780;2022-11-02T08:52:34;17.10;1.00
573;DHT22;271;51.114;13.780;2022-11-02T08:55:02;17.30;1.00
573;DHT22;271;51.114;13.780;2022-11-02T08:57:29;17.50;1.00
573;DHT22;271;51.114;13.780;2022-11-02T08:59:56;17.80;1.00
573;DHT22;271;51.114;13.780;2022-11-02T09:02:23;18.00;1.00
573;DHT22;271;51.114;13.780;2022-11-02T09:04:52;18.10;1.00
573;DHT22;271;51.114;13.780;2022-11-02T09:07:19;18.30;1.00
573;DHT22;271;51.114;13.780;2022-11-02T09:09:46;18.70;1.00
573;DHT22;271;51.114;13.780;2022-11-02T09:12:13;18.60;1.00
573;DHT22;271;51.114;13.780;2022-11-02T09:14:41;18.70;1.00
573;DHT22;271;51.114;13.780;2022-11-02T09:17:08;18.90;1.00
573;DHT22;271;51.114;13.780;2022-11-02T09:19:35;19.30;1.00
573;DHT22;271;51.114;13.780;2022-11-02T09:22:03;19.30;1.00
573;DHT22;271;51.114;13.780;2022-11-02T09:24:31;19.30;1.00
573;DHT22;271;51.114;13.780;2022-11-02T09:26:59;19.00;1.00
573;DHT22;271;51.114;13.780;2022-11-02T09:29:26;18.80;1.00
573;DHT22;271;51.114;13.780;2022-11-02T09:31:53;18.70;1.00
573;DHT22;271;51.114;13.780;2022-11-02T09:34:20;18.60;1.00
573;DHT22;271;51.114;13.780;2022-11-02T09:36:47;17.70;1.00
573;DHT22;271;51.114;13.780;2022-11-02T09:39:16;17.10;1.00
573;DHT22;271;51.114;13.780;2022-11-02T09:41:47;16.90;1.00
573;DHT22;271;51.114;13.780;2022-11-02T09:44:20;16.90;1.00
573;DHT22;271;51.114;13.780;2022-11-02T09:46:49;16.50;1.00
573;DHT22;271;51.114;13.780;2022-11-02T09:49:18;16.20;1.00
573;DHT22;271;51.114;13.780;2022-11-02T09:51:49;16.00;1.00
573;DHT22;271;51.114;13.780;2022-11-02T09:54:22;15.90;1.00
573;DHT22;271;51.114;13.780;2022-11-02T09:56:55;15.70;1.00
573;DHT22;271;51.114;13.780;2022-11-02T09:59:24;15.70;1.00
573;DHT22;271;51.114;13.780;2022-11-02T10:01:57;15.60;1.00
573;DHT22;271;51.114;13.780;2022-11-02T10:04:46;15.50;1.00
573;DHT22;271;51.114;13.780;2022-11-02T10:07:22;15.40;1.00
573;DHT22;271;51.114;13.780;2022-11-02T10:09:58;15.40;1.00
573;DHT22;271;51.114;13.780;2022-11-02T10:12:34;15.30;1.00
573;DHT22;271;51.114;13.780;2022-11-02T10:15:07;15.20;1.00
573;DHT22;271;51.114;13.780;2022-11-02T10:17:36;15.10;1.00
573;DHT22;271;51.114;13.780;2022-11-02T10:20:10;15.20;1.00
573;DHT22;271;51.114;13.780;2022-11-02T10:22:43;15.40;1.00
573;DHT22;271;51.114;13.780;2022-11-02T10:25:15;15.90;1.00
573;DHT22;271;51.114;13.780;2022-11-02T10:27:44;16.40;1.00
573;DHT22;271;51.114;13.780;2022-11-02T10:30:15;16.70;1.00
573;DHT22;271;51.114;13.780;2022-11-02T10:32:43;16.90;1.00
573;DHT22;271;51.114;13.780;2022-11-02T10:35:17;16.60;1.00
573;DHT22;271;51.114;13.780;2022-11-02T10:37:58;16.40;1.00
573;DHT22;271;51.114;13.780;2022-11-02T10:40:43;16.00;1.00
573;DHT22;271;51.114;13.780;2022-11-02T10:43:22;15.60;1.00
573;DHT22;271;51.114;13.780;2022-11-02T10:46:01;15.60;1.00
573;DHT22;271;51.114;13.780;2022-11-02T10:48:35;15.50;1.00
573;DHT22;271;51.114;13.780;2022-11-02T10:51:08;15.60;1.00
573;DHT22;271;51.114;13.780;2022-11-02T10:53:39;15.80;1.00
573;DHT22;271;51.114;13.780;2022-11-02T10:56:14;16.10;1.00
573;DHT22;271;51.114;13.780;2022-11-02T10:58:47;16.10;1.00
573;DHT22;271;51.114;13.780;2022-11-02T11:01:15;16.10;1.00
573;DHT22;271;51.114;13.780;2022-11-02T11:03:53;16.30;1.00
573;DHT22;271;51.114;13.780;2022-11-02T11:06:22;16.40;1.00
573;DHT22;271;51.114;13.780;2022-11-02T11:08:50;16.40;1.00
573;DHT22;271;51.114;13.780;2022-11-02T11:11:23;16.40;1.00
573;DHT22;271;51.114;13.780;2022-11-02T11:13:56;16.40;1.00
573;DHT22;271;51.114;13.780;2022-11-02T11:16:46;16.50;1.00
573;DHT22;271;51.114;13.780;2022-11-02T11:19:28;16.70;1.00
573;DHT22;271;51.114;13.780;2022-11-02T11:21:58;16.70;1.00
573;DHT22;271;51.114;13.780;2022-11-02T11:24:27;16.70;1.00
573;DHT22;271;51.114;13.780;2022-11-02T11:27:13;16.80;1.00
573;DHT22;271;51.114;13.780;2022-11-02T11:29:47;16.90;1.00
573;DHT22;271;51.114;13.780;2022-11-02T11:32:16;16.80;1.00
573;DHT22;271;51.114;13.780;2022-11-02T11:34:49;16.70;1.00
573;DHT22;271;51.114;13.780;2022-11-02T11:37:19;16.50;1.00
573;DHT22;271;51.114;13.780;2022-11-02T11:39:50;16.30;1.00
573;DHT22;271;51.114;13.780;2022-11-02T11:42:21;16.20;1.00
573;DHT22;271;51.114;13.780;2022-11-02T11:44:55;16.20;1.00
573;DHT22;271;51.114;13.780;2022-11-02T11:47:25;16.10;1.00
573;DHT22;271;51.114;13.780;2022-11-02T11:49:53;16.10;1.00
573;DHT22;271;51.114;13.780;2022-11-02T11:52:24;16.00;1.00
573;DHT22;271;51.114;13.780;2022-11-02T11:54:55;16.10;1.00
573;DHT22;271;51.114;13.780;2022-11-02T11:57:28;16.20;1.00
573;DHT22;271;51.114;13.780;2022-11-02T11:59:57;16.10;1.00
573;DHT22;271;51.114;13.780;2022-11-02T12:02:28;15.90;1.00
573;DHT22;271;51.114;13.780;2022-11-02T12:05:11;15.90;1.00
573;DHT22;271;51.114;13.780;2022-11-02T12:08:09;15.90;1.00
573;DHT22;271;51.114;13.780;2022-11-02T12:10:59;15.90;1.00
573;DHT22;271;51.114;13.780;2022-11-02T12:13:49;15.80;1.00
573;DHT22;271;51.114;13.780;2022-11-02T12:16:26;15.70;1.00
573;DHT22;271;51.114;13.780;2022-11-02T12:19:07;15.50;1.00
573;DHT22;271;51.114;13.780;2022-11-02T12:21:46;15.40;1.00
573;DHT22;271;51.114;13.780;2022-11-02T12:24:49;15.30;1.00
573;DHT22;271;51.114;13.780;2022-11-02T12:27:29;15.30;1.00
573;DHT22;271;51.114;13.780;2022-11-02T12:30:16;15.20;1.00
573;DHT22;271;51.114;13.780;2022-11-02T12:33:02;15.10;1.00
573;DHT22;271;51.114;13.780;2022-11-02T12:35:39;15.10;1.00
573;DHT22;271;51.114;13.780;2022-11-02T12:38:24;15.00;1.00
573;DHT22;271;51.114;13.780;2022-11-02T12:41:01;14.90;1.00
573;DHT22;271;51.114;13.780;2022-11-02T12:43:39;14.90;1.00
573;DHT22;271;51.114;13.780;2022-11-02T12:46:19;14.80;1.00
573;DHT22;271;51.114;13.780;2022-11-02T12:49:00;14.80;1.00
573;DHT22;271;51.114;13.780;2022-11-02T12:51:31;14.80;1.00
573;DHT22;271;51.114;13.780;2022-11-02T12:54:05;14.90;1.00
573;DHT22;271;51.114;13.780;2022-11-02T12:56:43;14.80;1.00
573;DHT22;271;51.114;13.780;2022-11-02T12:59:16;15.00;1.00
573;DHT22;271;51.114;13.780;2022-11-02T13:01:46;15.10;1.00
573;DHT22;271;51.114;13.780;2022-11-02T13:04:20;15.30;1.00
573;DHT22;271;51.114;13.780;2022-11-02T13:06:50;15.30;1.00
573;DHT22;271;51.114;13.780;2022-11-02T13:09:23;15.50;1.00
573;DHT22;271;51.114;13.780;2022-11-02T13:11:55;15.70;1.00
573;DHT22;271;51.114;13.780;2022-11-02T13:14:36;15.80;1.00
573;DHT22;271;51.114;13.780;2022-11-02T13:17:11;15.90;1.00
573;DHT22;271;51.114;13.780;2022-11-02T13:19:43;16.00;1.00
573;DHT22;271;51.114;13.780;2022-11-02T13:22:13;16.10;1.00
573;DHT22;271;51.114;13.780;2022-11-02T13:24:44;16.10;1.00
573;DHT22;271;51.114;13.780;2022-11-02T13:27:26;16.20;1.00
573;DHT22;271;51.114;13.780;2022-11-02T13:29:58;16.20;1.00
573;DHT22;271;51.114;13.780;2022-11-02T13:32:31;16.20;1.00
573;DHT22;271;51.114;13.780;2022-11-02T13:35:02;16.00;1.00
573;DHT22;271;51.114;13.780;2022-11-02T13:37:34;15.80;1.00
573;DHT22;271;51.114;13.780;2022-11-02T13:40:10;15.50;1.00
573;DHT22;271;51.114;13.780;2022-11-02T13:45:52;15.20;1.00
573;DHT22;271;51.114;13.780;2022-11-02T13:51:19;15.30;1.00
573;DHT22;271;51.114;13.780;2022-11-02T13:53:53;15.50;1.00
573;DHT22;271;51.114;13.780;2022-11-02T13:56:24;15.60;1.00
573;DHT22;271;51.114;13.780;2022-11-02T13:58:58;15.70;1.00
573;DHT22;271;51.114;13.780;2022-11-02T14:01:32;15.60;1.00
573;DHT22;271;51.114;13.780;2022-11-02T14:04:25;15.60;1.00
573;DHT22;271;51.114;13.780;2022-11-02T14:07:02;15.40;1.00
573;DHT22;271;51.114;13.780;2022-11-02T14:09:34;15.30;1.00
573;DHT22;271;51.114;13.780;2022-11-02T14:12:28;15.30;1.00
573;DHT22;271;51.114;13.780;2022-11-02T14:18:34;15.10;1.00
573;DHT22;271;51.114;13.780;2022-11-02T14:21:44;15.00;1.00
573;DHT22;271;51.114;13.780;2022-11-02T14:24:53;14.80;1.00
573;DHT22;271;51.114;13.780;2022-11-02T14:27:35;14.80;1.00
573;DHT22;271;51.114;13.780;2022-11-02T14:30:18;14.70;1.00
573;DHT22;271;51.114;13.780;2022-11-02T14:33:03;14.70;1.00
573;DHT22;271;51.114;13.780;2022-11-02T14:35:40;14.60;1.00
573;DHT22;271;51.114;13.780;2022-11-02T14:38:29;14.50;1.00
573;DHT22;271;51.114;13.780;2022-11-02T14:41:09;14.40;1.00
573;DHT22;271;51.114;13.780;2022-11-02T14:44:03;14.30;1.00
573;DHT22;271;51.114;13.780;2022-11-02T14:46:52;14.20;1.00
573;DHT22;271;51.114;13.780;2022-11-02T14:49:25;14.20;1.00
573;DHT22;271;51.114;13.780;2022-11-02T14:51:57;14.10;1.00
573;DHT22;271;51.114;13.780;2022-11-02T14:54:25;14.10;1.00
573;DHT22;271;51.114;13.780;2022-11-02T14:56:58;14.10;1.00
573;DHT22;271;51.114;13.780;2022-11-02T14:59:52;14.00;1.00
573;DHT22;271;51.114;13.780;2022-11-02T15:02:22;14.00;1.00
573;DHT22;271;51.114;13.780;2022-11-02T15:04:56;13.90;1.00
573;DHT22;271;51.114;13.780;2022-11-02T15:07:31;13.80;1.00
573;DHT22;271;51.114;13.780;2022-11-02T15:10:00;13.70;1.00
573;DHT22;271;51.114;13.780;2022-11-02T15:12:32;13.70;1.00
573;DHT22;271;51.114;13.780;2022-11-02T15:18:30;13.50;1.00
573;DHT22;271;51.114;13.780;2022-11-02T15:21:22;13.60;1.00
573;DHT22;271;51.114;13.780;2022-11-02T15:26:40;13.30;1.00
573;DHT22;271;51.114;13.780;2022-11-02T15:29:15;13.20;1.00
573;DHT22;271;51.114;13.780;2022-11-02T15:31:50;13.10;1.00
573;DHT22;271;51.114;13.780;2022-11-02T15:34:19;13.00;1.00
573;DHT22;271;51.114;13.780;2022-11-02T15:36:48;13.00;1.00
573;DHT22;271;51.114;13.780;2022-11-02T15:39:17;12.90;1.00
573;DHT22;271;51.114;13.780;2022-11-02T15:41:49;12.80;1.00
573;DHT22;271;51.114;13.780;2022-11-02T15:44:50;12.80;1.00
573;DHT22;271;51.114;13.780;2022-11-02T15:47:27;12.70;1.00
573;DHT22;271;51.114;13.780;2022-11-02T15:50:18;12.60;1.00
573;DHT22;271;51.114;13.780;2022-11-02T15:52:56;12.40;1.00
573;DHT22;271;51.114;13.780;2022-11-02T15:55:32;12.30;1.00
573;DHT22;271;51.114;13.780;2022-11-02T15:58:15;12.20;1.00
573;DHT22;271;51.114;13.780;2022-11-02T16:01:03;12.10;1.00
573;DHT22;271;51.114;13.780;2022-11-02T16:03:31;12.00;1.00
573;DHT22;271;51.114;13.780;2022-11-02T16:06:00;11.90;1.00
573;DHT22;271;51.114;13.780;2022-11-02T16:08:33;11.80;1.00
573;DHT22;271;51.114;13.780;2022-11-02T16:11:05;11.60;1.00
573;DHT22;271;51.114;13.780;2022-11-02T16:13:38;11.50;1.00
573;DHT22;271;51.114;13.780;2022-11-02T16:16:06;11.40;1.00
573;DHT22;271;51.114;13.780;2022-11-02T16:18:35;11.40;1.00
573;DHT22;271;51.114;13.780;2022-11-02T16:21:05;11.30;1.00
573;DHT22;271;51.114;13.780;2022-11-02T16:23:36;11.30;1.00
573;DHT22;271;51.114;13.780;2022-11-02T16:26:05;11.20;1.00
573;DHT22;271;51.114;13.780;2022-11-02T16:28:35;11.10;1.00
573;DHT22;271;51.114;13.780;2022-11-02T16:31:06;11.10;1.00
573;DHT22;271;51.114;13.780;2022-11-02T16:33:37;11.00;1.00
573;DHT22;271;51.114;13.780;2022-11-02T16:36:05;10.90;1.00
573;DHT22;271;51.114;13.780;2022-11-02T16:38:34;10.80;1.00
573;DHT22;271;51.114;13.780;2022-11-02T16:41:02;10.70;1.00
573;DHT22;271;51.114;13.780;2022-11-02T16:43:30;10.60;1.00
573;DHT22;271;51.114;13.780;2022-11-02T16:46:01;10.60;1.00
573;DHT22;271;51.114;13.780;2022-11-02T16:48:30;10.50;1.00
573;DHT22;271;51.114;13.780;2022-11-02T16:51:00;10.50;1.00
573;DHT22;271;51.114;13.780;2022-11-02T16:53:30;10.40;1.00
573;DHT22;271;51.114;13.780;2022-11-02T16:56:14;10.30;1.00
573;DHT22;271;51.114;13.780;2022-11-02T16:58:46;10.20;1.00
573;DHT22;271;51.114;13.780;2022-11-02T17:01:20;10.10;1.00
573;DHT22;271;51.114;13.780;2022-11-02T17:03:51;10.00;1.00
573;DHT22;271;51.114;13.780;2022-11-02T17:06:21;9.90;1.00
573;DHT22;271;51.114;13.780;2022-11-02T17:08:54;9.90;1.00
573;DHT22;271;51.114;13.780;2022-11-02T17:11:34;9.90;1.00
573;DHT22;271;51.114;13.780;2022-11-02T17:14:08;9.80;1.00
573;DHT22;271;51.114;13.780;2022-11-02T17:16:56;9.80;1.00
573;DHT22;271;51.114;13.780;2022-11-02T17:19:44;9.70;1.00
573;DHT22;271;51.114;13.780;2022-11-02T17:22:53;9.70;1.00
573;DHT22;271;51.114;13.780;2022-11-02T17:25:39;9.60;1.00
573;DHT22;271;51.114;13.780;2022-11-02T17:28:41;9.60;1.00
573;DHT22;271;51.114;13.780;2022-11-02T17:31:15;9.40;1.00